Terminal Aerodrome Forecast
Issued by NWS

Home | Current Version | Previous Version | Text Only | Print | Product List | Glossary On
Versions: 1 2 3 4 5 6 7 8 9 10 11 12 13 14 15 16 17 18 19 20 21 22 23 24
000
FTUS41 KCAR 201120
TAFFVE
TAF
KFVE 201120Z 2012/2112 33012G20KT P6SM SCT030
      TEMPO 2012/2015 5SM -SHSN OVC022
     FM201500 33013G22KT P6SM BKN028
     FM201800 33013G22KT P6SM SCT030
     FM210000 33009KT P6SM FEW100
     FM210500 32005KT P6SM SKC=

USA.gov is the U.S. government's official web portal to all federal, state and local government web resources and services.